KCLT/CLT METAR and TAF weather

Enter ICAO airport designator
Station Type Date Time Source
KCLT METAR 2019/10/20 18:52 UTC NOAA

KCLT 201852Z 34009KT 10SM FEW031 23/14 A2984 RMK AO2 SLP099 T02330139


Station Type Date Time Source
KCLT Decoded METAR 2019/10/20 18:52 UTC NOAA

CHARLOTTE/DOUGLAS INTERNATIONAL , NC, United States (KCLT) 35-13N 80-57W 220M
Oct 20, 2019 - 02:52 PM EDT / 2019.10.20 1852 UTC
Wind: from the NNW (340 degrees) at 10 MPH (9 KT):0
Visibility: 10 mile(s):0
Sky conditions: mostly clear
Temperature: 73.9 F (23.3 C)
Dew Point: 57.0 F (13.9 C)
Relative Humidity: 55%
Pressure (altimeter): 29.84 in. Hg (1010 hPa)
ob: KCLT 201852Z 34009KT 10SM FEW031 23/14 A2984 RMK AO2 SLP099 T02330139
cycle: 19

Station Type Date Time Source
KCLT TAF 2019/10/20 18:39 UTC NOAA

TAF KCLT 201737Z 2018/2124 35009KT P6SM SCT019
FM202000 03003KT P6SM SCT040
FM210000 08003KT P6SM SCT040
FM211000 08003KT 6SM BR BKN017
TEMPO 2110/2114 4SM BR BKN008
FM211600 10004KT P6SM OVC027

Example: see airport list